You are not logged in, Click here to log in
尼諾伊·艾奎諾國際機場MNL / RPLL 菲律賓馬尼拉
ICAO: RPLL Country: 菲律賓馬尼拉
Latitude: 14.5123 Longitude: 121.017
Total Arrivals: 115 Total Departures: 118
Latest Arrival: KL807K (RCKH-RPLL)Lun. Wang Latest Departure: BR278 (RPLL-RCTP)CHU. CHUHAO
Scenery:
METAR : RPLL 261300Z 12007KT 070V160 9999 SCT023 BKN090 26/22 Q1014 NOSIG RMK A2994

尼諾伊·艾奎諾國際機場MNL